Time;durP1;ratioP1;P1;durP2;ratioP2;P2;SDS_P1;SDS_P2;PMS_P1;PMS_P2;Temp;Humidity;BMP_temperature;BMP_pressure;BME280_temperature;BME280_humidity;BME280_pressure;Samples;Min_cycle;Max_cycle;Signal;HPM_P1;HPM_P2
2021/09/29 00:01:01;;;;;;;10.38;3.78;;;;;;;12.74;100.00;101578.41;2615618;36;20077;-76
2021/09/29 00:03:29;;;;;;;9.45;4.13;;;;;;;12.74;100.00;101573.00;2616270;36;20022;-75
2021/09/29 00:05:58;;;;;;;9.13;4.07;;;;;;;12.74;100.00;101570.31;2615994;36;20057;-78
2021/09/29 00:08:26;;;;;;;9.93;3.90;;;;;;;12.69;100.00;101573.41;2615124;36;20026;-76
2021/09/29 00:10:54;;;;;;;8.40;3.45;;;;;;;12.61;100.00;101562.41;2615239;36;20031;-77
2021/09/29 00:13:26;;;;;;;7.65;3.30;;;;;;;12.61;100.00;101567.81;2616006;36;20373;-77
2021/09/29 00:15:55;;;;;;;8.43;3.40;;;;;;;12.59;100.00;101561.69;2616825;36;20026;-76
2021/09/29 00:18:24;;;;;;;6.18;3.50;;;;;;;12.51;100.00;101562.31;2616425;31;20038;-76
2021/09/29 00:20:52;;;;;;;6.60;3.17;;;;;;;12.51;100.00;101559.63;2616381;36;20029;-77
2021/09/29 00:23:21;;;;;;;9.05;3.70;;;;;;;12.44;100.00;101556.63;2616914;36;20037;-77
2021/09/29 00:25:49;;;;;;;13.10;4.22;;;;;;;12.43;100.00;101554.88;2616766;36;20077;-77
2021/09/29 00:28:17;;;;;;;10.10;3.28;;;;;;;12.40;100.00;101548.91;2615715;36;20023;-76
2021/09/29 00:31:02;;;;;;;6.75;3.47;;;;;;;12.39;100.00;101548.03;2616051;36;20074;-75
2021/09/29 00:33:31;;;;;;;7.95;3.60;;;;;;;12.36;100.00;101548.31;2615679;36;20037;-76
2021/09/29 00:35:59;;;;;;;;;;;;;;;12.39;100.00;101545.34;2615069;36;20033;-76
2021/09/29 00:38:30;;;;;;;8.02;3.50;;;;;;;12.36;100.00;101536.66;2617171;31;20424;-77
2021/09/29 00:40:58;;;;;;;12.50;3.78;;;;;;;12.32;100.00;101529.81;2615484;36;20027;-76
2021/09/29 00:43:27;;;;;;;8.35;3.60;;;;;;;12.30;100.00;101531.78;2615853;36;20065;-77
2021/09/29 00:45:59;;;;;;;5.13;3.08;;;;;;;12.32;100.00;101524.41;2614794;36;20026;-76
2021/09/29 00:48:27;;;;;;;11.30;3.47;;;;;;;12.29;100.00;101519.28;2615674;36;20073;-77
2021/09/29 00:50:56;;;;;;;9.70;3.35;;;;;;;12.25;100.00;101518.69;2614305;36;20047;-75
2021/09/29 00:53:24;;;;;;;7.65;3.47;;;;;;;12.24;100.00;101512.41;2612173;31;20559;-77
2021/09/29 00:55:52;;;;;;;9.50;3.60;;;;;;;12.25;100.00;101503.34;2611036;31;20725;-77
2021/09/29 00:58:21;;;;;;;5.97;3.47;;;;;;;12.21;100.00;101507.28;2608662;36;20035;-76
2021/09/29 01:00:49;;;;;;;6.18;3.55;;;;;;;12.18;100.00;101502.16;2608242;36;20181;-78
2021/09/29 01:03:21;;;;;;;11.02;4.10;;;;;;;12.20;100.00;101497.47;2609481;36;20585;-77
2021/09/29 01:05:50;;;;;;;7.47;3.78;;;;;;;12.19;100.00;101503.00;2608924;36;20073;-76
2021/09/29 01:08:23;;;;;;;12.52;4.07;;;;;;;12.14;100.00;101502.56;2608833;36;20092;-76
2021/09/29 01:10:58;;;;;;;8.55;3.92;;;;;;;12.12;100.00;101486.50;2609577;36;20089;-76
2021/09/29 01:13:30;;;;;;;10.07;3.67;;;;;;;12.12;100.00;101491.00;2609205;36;21323;-75
2021/09/29 01:16:02;;;;;;;9.55;4.25;;;;;;;12.01;100.00;101484.69;2609040;36;20049;-77
2021/09/29 01:18:37;;;;;;;7.72;4.28;;;;;;;11.99;100.00;101483.13;2609611;36;20039;-76
2021/09/29 01:21:08;;;;;;;8.20;4.15;;;;;;;11.95;100.00;101474.41;2609140;36;20134;-78
2021/09/29 01:23:51;;;;;;;12.82;4.80;;;;;;;11.92;100.00;101472.84;2609420;36;20035;-78
2021/09/29 01:26:24;;;;;;;7.05;4.35;;;;;;;11.89;100.00;101481.16;2609115;36;20085;-76
2021/09/29 01:28:55;;;;;;;9.05;4.72;;;;;;;11.87;100.00;101477.75;2609432;36;20050;-76
2021/09/29 01:31:24;;;;;;;13.70;4.68;;;;;;;11.86;100.00;101467.94;2607762;36;20045;-76
2021/09/29 01:33:53;;;;;;;;;;;;;;;11.88;100.00;101462.41;2609816;36;20034;-75
2021/09/29 01:36:22;;;;;;;12.40;4.75;;;;;;;11.81;100.00;101459.38;2608712;36;19958;-74
2021/09/29 01:38:54;;;;;;;8.30;4.55;;;;;;;11.78;100.00;101456.06;2609644;36;20400;-77
2021/09/29 01:41:26;;;;;;;11.45;4.45;;;;;;;11.78;100.00;101446.16;2610512;36;20089;-75
2021/09/29 01:43:55;;;;;;;9.98;4.97;;;;;;;11.77;100.00;101443.59;2608694;36;20061;-77
2021/09/29 01:46:23;;;;;;;11.40;4.88;;;;;;;11.81;100.00;101434.25;2608408;36;20034;-76
2021/09/29 01:49:02;;;;;;;10.23;4.80;;;;;;;11.76;100.00;101431.94;2608858;31;20543;-76
2021/09/29 01:56:38;;;;;;;8.75;4.72;;;;;;;11.71;100.00;101418.84;2611507;54;20019;-78
2021/09/29 01:59:07;;;;;;;9.77;4.90;;;;;;;11.67;100.00;101413.84;2609873;36;20046;-76
2021/09/29 02:01:37;;;;;;;8.43;4.65;;;;;;;11.65;100.00;101418.53;2609580;36;20073;-76
2021/09/29 02:04:06;;;;;;;9.48;5.40;;;;;;;11.64;100.00;101412.25;2608763;36;20046;-76
2021/09/29 02:06:45;;;;;;;9.93;5.03;;;;;;;11.73;100.00;101407.91;2609910;36;20045;-77
2021/09/29 02:09:14;;;;;;;13.50;5.35;;;;;;;11.70;100.00;101408.19;2610750;36;20038;-75
2021/09/29 02:11:45;;;;;;;14.57;5.53;;;;;;;11.70;100.00;101405.50;2610613;36;20158;-76
2021/09/29 02:14:15;;;;;;;11.90;5.28;;;;;;;11.71;100.00;101397.28;2610772;36;20039;-76
2021/09/29 02:16:43;;;;;;;;;;;;;;;11.72;100.00;101400.84;2611940;36;20051;-77
2021/09/29 02:19:11;;;;;;;14.27;5.72;;;;;;;11.67;100.00;101400.34;2609267;36;19951;-77
2021/09/29 02:21:40;;;;;;;9.90;5.18;;;;;;;11.67;100.00;101384.19;2609600;36;20511;-77
2021/09/29 02:24:09;;;;;;;10.00;5.90;;;;;;;11.63;100.00;101380.91;2611496;36;20089;-77
2021/09/29 02:26:37;;;;;;;10.20;5.50;;;;;;;11.64;100.00;101379.06;2609565;31;20034;-77
2021/09/29 02:29:10;;;;;;;13.45;5.30;;;;;;;11.62;100.00;101379.19;2609543;36;20055;-77
2021/09/29 02:31:38;;;;;;;9.82;4.88;;;;;;;11.60;100.00;101369.50;2609140;36;20151;-76
2021/09/29 02:34:08;;;;;;;10.23;6.07;;;;;;;11.60;100.00;101366.81;2610239;36;20034;-76
2021/09/29 02:36:37;;;;;;;12.65;5.57;;;;;;;11.60;100.00;101366.81;2609136;36;20089;-77
2021/09/29 02:39:06;;;;;;;;;;;;;;;11.60;100.00;101356.03;2608985;36;20030;-75
2021/09/29 02:41:34;;;;;;;11.32;5.72;;;;;;;11.57;100.00;101363.41;2611714;31;20040;-76
2021/09/29 02:44:08;;;;;;;12.13;6.28;;;;;;;11.56;100.00;101360.84;2610103;36;20046;-76
2021/09/29 02:46:39;;;;;;;12.32;6.10;;;;;;;11.51;100.00;101358.53;2609452;36;20046;-75
2021/09/29 02:49:08;;;;;;;14.45;6.13;;;;;;;11.47;100.00;101354.38;2609269;36;20063;-77
2021/09/29 02:51:37;;;;;;;12.77;6.20;;;;;;;11.48;100.00;101348.00;2609338;36;20065;-75
2021/09/29 02:54:06;;;;;;;12.88;6.25;;;;;;;11.50;100.00;101343.34;2610860;36;20082;-75
2021/09/29 02:56:34;;;;;;;9.35;6.07;;;;;;;11.50;100.00;101339.81;2609429;36;20062;-76
2021/09/29 02:59:04;;;;;;;12.27;5.43;;;;;;;11.45;100.00;101329.38;2609083;36;20042;-77
2021/09/29 03:01:33;;;;;;;13.35;5.78;;;;;;;11.44;100.00;101333.09;2610200;36;20133;-78
2021/09/29 03:04:04;;;;;;;14.80;6.70;;;;;;;11.52;100.00;101332.44;2611244;36;20034;-77
2021/09/29 03:06:39;;;;;;;11.60;6.40;;;;;;;11.48;100.00;101329.13;2612142;31;20046;-76
2021/09/29 03:09:08;;;;;;;10.40;6.60;;;;;;;11.49;100.00;101320.06;2609878;36;20041;-76
2021/09/29 03:11:37;;;;;;;12.45;6.05;;;;;;;11.55;100.00;101332.16;2610111;36;20129;-75
2021/09/29 03:14:05;;;;;;;12.85;6.47;;;;;;;11.51;100.00;101322.63;2609967;36;20050;-77
2021/09/29 03:16:33;;;;;;;11.17;6.07;;;;;;;11.52;100.00;101316.25;2610296;31;20471;-75
2021/09/29 03:19:05;;;;;;;11.77;6.15;;;;;;;11.52;100.00;101314.41;2608865;31;20338;-75
2021/09/29 03:21:33;;;;;;;15.25;7.38;;;;;;;11.53;100.00;101313.44;2609218;36;20034;-75
2021/09/29 03:24:01;;;;;;;12.88;6.55;;;;;;;11.52;100.00;101303.63;2610468;36;20587;-78
2021/09/29 03:26:29;;;;;;;12.73;5.75;;;;;;;11.46;100.00;101301.44;2608556;36;20026;-77
2021/09/29 03:28:58;;;;;;;11.03;7.07;;;;;;;11.46;100.00;101306.84;2609664;36;20042;-75
2021/09/29 03:31:26;;;;;;;11.88;6.72;;;;;;;11.46;100.00;101304.16;2610071;36;20162;-76
2021/09/29 03:33:55;;;;;;;11.88;6.55;;;;;;;11.47;100.00;101297.78;2610973;31;20685;-75
2021/09/29 03:36:26;;;;;;;14.77;5.57;;;;;;;11.50;100.00;101297.50;2608896;36;20039;-75
2021/09/29 03:38:55;;;;;;;11.48;6.53;;;;;;;11.53;100.00;101302.63;2611202;36;20029;-76
2021/09/29 03:41:23;;;;;;;12.05;6.47;;;;;;;11.57;100.00;101304.09;2611003;36;20089;-75
2021/09/29 03:43:51;;;;;;;11.85;6.32;;;;;;;11.60;100.00;101302.09;2610293;36;21139;-78
2021/09/29 03:46:19;;;;;;;10.70;6.32;;;;;;;11.62;100.00;101298.31;2609239;31;20463;-76
2021/09/29 03:48:48;;;;;;;14.53;6.60;;;;;;;11.63;100.00;101299.16;2608946;36;20118;-79
2021/09/29 03:51:16;;;;;;;17.93;8.70;;;;;;;11.62;100.00;101294.75;2609458;36;20026;-73
2021/09/29 03:53:53;;;;;;;19.03;8.20;;;;;;;11.51;100.00;101293.84;2610303;36;20311;-73
2021/09/29 03:56:24;;;;;;;12.95;7.20;;;;;;;11.45;100.00;101294.34;2608741;36;20034;-73
2021/09/29 03:58:58;;;;;;;13.57;7.53;;;;;;;11.38;100.00;101293.16;2610395;36;20031;-73
2021/09/29 04:01:31;;;;;;;13.10;7.90;;;;;;;11.33;100.00;101298.94;2609427;36;20042;-73
2021/09/29 04:03:59;;;;;;;18.50;8.80;;;;;;;11.34;100.00;101294.44;2610363;36;20567;-73
2021/09/29 04:06:27;;;;;;;20.45;10.00;;;;;;;11.32;100.00;101293.69;2626819;36;20030;-74
2021/09/29 04:09:00;;;;;;;24.15;10.75;;;;;;;11.31;100.00;101297.38;2609756;36;20038;-76
2021/09/29 04:11:30;;;;;;;29.23;11.75;;;;;;;11.29;100.00;101289.44;2608762;36;20038;-76
2021/09/29 04:13:58;;;;;;;25.27;11.60;;;;;;;11.31;100.00;101287.44;2627943;36;20555;-77
2021/09/29 04:16:26;;;;;;;20.42;9.48;;;;;;;11.27;100.00;101291.38;2608302;36;20041;-76
2021/09/29 04:18:57;;;;;;;16.73;9.20;;;;;;;11.25;100.00;101282.59;2610215;36;20042;-77
2021/09/29 04:21:32;;;;;;;14.73;9.35;;;;;;;11.19;100.00;101277.72;2608774;31;20087;-77
2021/09/29 04:24:09;;;;;;;19.42;10.27;;;;;;;11.17;100.00;101283.25;2611326;36;20030;-76
2021/09/29 04:26:40;;;;;;;16.80;8.40;;;;;;;11.14;100.00;101283.47;2608793;36;20085;-77
2021/09/29 04:29:09;;;;;;;17.15;8.45;;;;;;;11.09;100.00;101282.19;2610184;36;20034;-77
2021/09/29 04:31:37;;;;;;;18.73;9.52;;;;;;;11.04;100.00;101279.84;2609681;36;20676;-77
2021/09/29 04:34:06;;;;;;;17.33;9.80;;;;;;;11.02;100.00;101284.53;2610123;31;20528;-78
2021/09/29 04:36:37;;;;;;;16.20;9.60;;;;;;;11.00;100.00;101279.25;2608745;36;20078;-77
2021/09/29 04:39:08;;;;;;;17.35;8.60;;;;;;;10.94;100.00;101281.59;2628113;36;20049;-77
2021/09/29 04:41:36;;;;;;;17.77;10.07;;;;;;;10.92;100.00;101280.88;2609902;36;20065;-77
2021/09/29 04:44:04;;;;;;;13.07;9.43;;;;;;;10.89;100.00;101278.44;2610129;36;20743;-78
2021/09/29 04:46:36;;;;;;;15.00;9.07;;;;;;;10.85;100.00;101280.53;2610437;36;20046;-78
2021/09/29 04:49:04;;;;;;;16.92;9.18;;;;;;;10.85;100.00;101278.72;2611132;36;20030;-77
2021/09/29 04:51:37;;;;;;;16.83;9.40;;;;;;;10.82;100.00;101278.97;2609935;36;20038;-77
2021/09/29 04:54:12;;;;;;;16.13;9.07;;;;;;;10.82;100.00;101270.00;2609898;36;20161;-77
2021/09/29 04:56:40;;;;;;;21.33;10.20;;;;;;;10.83;100.00;101279.81;2611150;36;20045;-78
2021/09/29 04:59:16;;;;;;;17.13;9.35;;;;;;;10.83;100.00;101271.72;2609621;36;20034;-79
2021/09/29 05:01:46;;;;;;;16.67;9.43;;;;;;;10.84;100.00;101270.75;2608659;36;20036;-78
2021/09/29 05:04:15;;;;;;;14.77;9.55;;;;;;;10.82;100.00;101264.63;2609038;36;20022;-77
2021/09/29 05:06:43;;;;;;;17.25;9.05;;;;;;;10.83;100.00;101261.81;2609450;36;20193;-78
2021/09/29 05:09:17;;;;;;;18.48;9.13;;;;;;;10.88;100.00;101256.06;2624254;36;20039;-77
2021/09/29 05:11:52;;;;;;;19.55;9.73;;;;;;;10.93;100.00;101261.91;2609063;36;20601;-77
2021/09/29 05:14:22;;;;;;;16.02;9.35;;;;;;;10.95;100.00;101259.06;2610357;36;20586;-78
2021/09/29 05:19:38;;;;;;;18.85;9.65;;;;;;;10.97;100.00;101252.59;2610495;36;20041;-79
2021/09/29 05:22:07;;;;;;;17.20;10.23;;;;;;;11.01;100.00;101258.56;2609134;36;20037;-78
2021/09/29 05:24:38;;;;;;;19.60;11.02;;;;;;;10.95;100.00;101257.22;2609047;36;20034;-79
2021/09/29 05:27:07;;;;;;;22.55;11.80;;;;;;;10.97;100.00;101254.44;2629747;36;20691;-78
2021/09/29 05:29:38;;;;;;;19.85;11.65;;;;;;;10.94;100.00;101252.84;2623841;36;20069;-79
2021/09/29 05:32:10;;;;;;;23.77;11.98;;;;;;;10.94;100.00;101250.16;2628058;36;20034;-78
2021/09/29 05:34:42;;;;;;;29.75;13.45;;;;;;;10.96;100.00;101244.63;2609340;31;20548;-79
2021/09/29 05:37:13;;;;;;;27.65;12.77;;;;;;;10.96;100.00;101250.88;2609004;36;20034;-80
2021/09/29 06:17:35;;;;;;;23.80;11.40;;;;;;;11.15;100.00;101231.31;2601308;36;20027;-77
2021/09/29 06:20:14;;;;;;;20.05;10.10;;;;;;;11.17;100.00;101232.06;2612758;36;20058;-77
2021/09/29 06:22:59;;;;;;;22.35;11.25;;;;;;;11.21;100.00;101233.47;2615949;36;20034;-78
2021/09/29 06:25:28;;;;;;;17.70;9.43;;;;;;;11.21;100.00;101230.78;2614428;31;20451;-77
2021/09/29 06:27:57;;;;;;;21.77;9.75;;;;;;;11.21;100.00;101227.25;2615843;36;20038;-77
2021/09/29 06:30:28;;;;;;;24.75;10.95;;;;;;;11.25;100.00;101230.50;2616562;36;20420;-77
2021/09/29 06:33:19;;;;;;;23.95;11.10;;;;;;;11.24;100.00;101231.53;2633887;36;20030;-77
2021/09/29 06:38:31;;;;;;;27.77;11.68;;;;;;;11.32;100.00;101223.63;2613846;36;20034;-79
2021/09/29 06:41:08;;;;;;;21.50;10.43;;;;;;;11.35;100.00;101226.91;2616315;36;20030;-79
2021/09/29 06:43:41;;;;;;;21.65;9.90;;;;;;;11.38;100.00;101223.09;2615266;36;20069;-78
2021/09/29 06:46:12;;;;;;;17.42;9.45;;;;;;;11.38;100.00;101217.69;2614162;36;20130;-77
2021/09/29 06:48:43;;;;;;;24.60;10.43;;;;;;;11.37;100.00;101221.41;2612459;36;20486;-77
2021/09/29 06:51:11;;;;;;;20.02;8.77;;;;;;;11.39;100.00;101211.31;2615849;36;20102;-78
2021/09/29 06:53:40;;;;;;;16.50;8.35;;;;;;;11.47;100.00;101216.91;2616914;36;20031;-78
2021/09/29 06:56:10;;;;;;;14.00;7.85;;;;;;;11.51;100.00;101229.16;2615738;36;20033;-77
2021/09/29 06:58:38;;;;;;;20.17;8.45;;;;;;;11.48;100.00;101224.00;2617020;36;20042;-78
2021/09/29 07:01:07;;;;;;;19.30;8.85;;;;;;;11.53;100.00;101227.16;2616474;36;20538;-78
2021/09/29 07:04:01;;;;;;;22.00;9.38;;;;;;;11.56;100.00;101226.03;2614578;36;20026;-77
2021/09/29 07:06:30;;;;;;;16.58;8.57;;;;;;;11.63;100.00;101231.75;2617044;36;20063;-77
2021/09/29 07:08:58;;;;;;;17.50;8.75;;;;;;;11.73;100.00;101238.91;2616977;36;20038;-77
2021/09/29 07:11:34;;;;;;;17.52;6.82;;;;;;;11.68;100.00;101224.13;2616378;31;20039;-77
2021/09/29 07:14:13;;;;;;;12.82;7.13;;;;;;;11.75;100.00;101228.84;2616732;36;20031;-77
2021/09/29 07:16:41;;;;;;;13.93;7.38;;;;;;;11.77;100.00;101228.69;2616999;36;20110;-77
2021/09/29 07:19:13;;;;;;;12.95;6.53;;;;;;;11.76;100.00;101232.38;2616461;36;20062;-77
2021/09/29 07:21:44;;;;;;;11.25;6.65;;;;;;;11.81;100.00;101234.69;2616586;36;20102;-78
2021/09/29 07:24:36;;;;;;;14.57;6.72;;;;;;;11.87;100.00;101235.00;2615762;36;20528;-78
2021/09/29 07:27:04;;;;;;;12.77;6.65;;;;;;;11.92;100.00;101221.09;2615819;36;20054;-77
2021/09/29 07:32:25;;;;;;;11.93;6.15;;;;;;;12.01;100.00;101217.59;2615895;36;20038;-78
2021/09/29 07:34:56;;;;;;;13.13;6.33;;;;;;;12.07;100.00;101218.91;2615498;36;20050;-78
2021/09/29 07:37:24;;;;;;;14.02;6.40;;;;;;;12.13;100.00;101225.59;2616810;31;20560;-78
2021/09/29 07:39:53;;;;;;;13.40;6.53;;;;;;;12.11;100.00;101223.03;2616967;36;20022;-77
2021/09/29 07:42:24;;;;;;;11.98;6.90;;;;;;;12.04;100.00;101217.34;2633934;36;20055;-77
2021/09/29 07:45:11;;;;;;;13.00;7.00;;;;;;;12.06;100.00;101219.91;2615448;36;20082;-76
2021/09/29 07:47:39;;;;;;;18.35;8.38;;;;;;;11.97;100.00;101223.41;2615056;36;20041;-75
2021/09/29 07:50:12;;;;;;;13.55;8.32;;;;;;;11.96;100.00;101227.97;2616941;36;20038;-77
2021/09/29 07:53:11;;;;;;;13.50;8.07;;;;;;;11.95;100.00;101214.59;2615603;36;20038;-75
2021/09/29 07:55:39;;;;;;;13.77;8.80;;;;;;;11.87;100.00;101228.75;2617802;31;20485;-75
2021/09/29 07:58:08;;;;;;;13.55;8.93;;;;;;;11.85;100.00;101230.72;2617238;36;20026;-76
2021/09/29 08:00:36;;;;;;;14.00;9.10;;;;;;;11.87;100.00;101218.81;2617168;36;20602;-75
2021/09/29 08:03:05;;;;;;;17.02;9.77;;;;;;;11.85;100.00;101230.72;2616384;36;20054;-75
2021/09/29 08:05:36;;;;;;;18.10;10.43;;;;;;;11.82;100.00;101223.75;2616452;31;20423;-74
2021/09/29 08:10:49;;;;;;;17.52;9.85;;;;;;;11.79;100.00;101242.88;2616374;36;20033;-74
2021/09/29 08:13:41;;;;;;;16.63;10.48;;;;;;;11.77;100.00;101233.25;2633106;36;20034;-74
2021/09/29 08:18:42;;;;;;;16.38;10.52;;;;;;;11.76;100.00;101235.06;2614904;36;20039;-81
2021/09/29 08:21:22;;;;;;;14.73;11.27;;;;;;;11.82;100.00;101226.47;2616850;36;20544;-79
2021/09/29 08:23:53;;;;;;;18.00;10.77;;;;;;;11.79;100.00;101229.41;2616340;36;20042;-75
2021/09/29 08:26:37;;;;;;;18.70;11.35;;;;;;;11.79;100.00;101239.34;2616380;36;20034;-74
2021/09/29 08:29:27;;;;;;;15.30;10.70;;;;;;;11.78;100.00;101238.50;2616764;36;20030;-76
2021/09/29 08:32:05;;;;;;;15.32;10.40;;;;;;;11.83;100.00;101233.53;2633185;36;20033;-75
2021/09/29 08:34:56;;;;;;;15.13;10.98;;;;;;;11.87;100.00;101234.16;2615386;36;20049;-75
2021/09/29 08:37:39;;;;;;;17.55;11.63;;;;;;;11.81;100.00;101230.13;2609695;36;20690;-74
2021/09/29 08:43:06;;;;;;;16.02;10.98;;;;;;;11.80;100.00;101235.66;2591150;36;20563;-77
2021/09/29 08:45:39;;;;;;;19.08;11.15;;;;;;;11.80;100.00;101236.50;2614856;36;20031;-73
2021/09/29 08:48:35;;;;;;;17.65;11.50;;;;;;;11.87;100.00;101250.31;2615964;31;20523;-74
2021/09/29 08:54:35;;;;;;;15.10;10.70;;;;;;;11.89;100.00;101249.19;2632837;36;20443;-77
2021/09/29 09:16:30;;;;;;;15.02;9.82;;;;;;;12.01;100.00;101257.22;2614251;36;20049;-76
2021/09/29 09:19:03;;;;;;;14.43;10.13;;;;;;;11.94;100.00;101256.06;2616518;36;20524;-79
2021/09/29 09:21:34;;;;;;;13.93;9.30;;;;;;;11.90;100.00;101250.91;2633163;36;20034;-74
2021/09/29 09:24:14;;;;;;;11.85;9.85;;;;;;;12.12;100.00;101248.16;2616340;36;20023;-75
2021/09/29 09:27:05;;;;;;;12.55;9.63;;;;;;;12.06;100.00;101249.59;2619397;36;20637;-75
2021/09/29 09:29:48;;;;;;;11.70;8.75;;;;;;;12.06;100.00;101246.88;2616300;36;20427;-74
2021/09/29 09:32:19;;;;;;;12.13;8.45;;;;;;;12.03;100.00;101245.31;2652139;36;20044;-82
2021/09/29 09:35:03;;;;;;;11.20;8.07;;;;;;;12.11;100.00;101236.53;2614341;36;20035;-76
2021/09/29 09:37:43;;;;;;;11.02;8.88;;;;;;;12.07;100.00;101235.09;2612599;36;20043;-75
2021/09/29 09:40:13;;;;;;;;;;;;;;;11.97;100.00;101245.00;2616803;31;20126;-77
2021/09/29 09:50:09;;;;;;;11.52;8.93;;;;;;;12.15;100.00;101251.47;2613084;36;20755;-76
2021/09/29 09:52:45;;;;;;;10.98;9.15;;;;;;;12.12;100.00;101242.78;2616166;36;20046;-77
2021/09/29 09:55:18;;;;;;;12.35;8.52;;;;;;;12.06;100.00;101246.88;2615671;36;20594;-76
2021/09/29 09:57:53;;;;;;;10.10;8.48;;;;;;;11.99;100.00;101243.03;2615507;36;20082;-75
2021/09/29 10:00:25;;;;;;;10.15;7.50;;;;;;;11.88;100.00;101252.88;2615523;31;20030;-77
2021/09/29 10:03:04;;;;;;;9.15;7.25;;;;;;;11.99;100.00;101248.44;2615185;36;20094;-77
2021/09/29 10:05:41;;;;;;;12.45;7.57;;;;;;;12.07;100.00;101262.06;2615693;36;20030;-76
2021/09/29 10:08:14;;;;;;;8.05;6.43;;;;;;;12.05;100.00;101253.28;2615739;36;20073;-75
2021/09/29 10:11:05;;;;;;;9.77;7.40;;;;;;;11.98;100.00;101262.88;2615535;36;20026;-77
2021/09/29 10:28:00;;;;;;;5.55;4.88;;;;;;;12.06;100.00;101303.56;2615348;36;20034;-76
2021/09/29 10:30:39;;;;;;;6.85;4.93;;;;;;;11.88;100.00;101293.34;2615597;36;20064;-78
2021/09/29 10:33:23;;;;;;;7.55;4.70;;;;;;;11.83;100.00;101303.66;2632939;36;20041;-75
2021/09/29 10:36:10;;;;;;;4.93;4.05;;;;;;;11.83;100.00;101306.38;2615011;36;20058;-75
2021/09/29 10:45:18;;;;;;;4.97;4.47;;;;;;;11.70;100.00;101317.38;2614724;36;20043;-75
2021/09/29 10:48:19;;;;;;;4.95;4.30;;;;;;;11.77;100.00;101320.38;2615883;36;20038;-75
2021/09/29 11:31:51;;;;;;;;;;;;;;;11.54;100.00;101349.31;2620637;36;20030;-76
2021/09/29 11:34:25;;;;;;;5.55;3.45;;;;;;;11.52;100.00;101349.44;2620283;31;20357;-76
2021/09/29 12:10:05;;;;;;;3.22;1.50;;;;;;;11.31;100.00;101400.63;2619843;36;20554;-77
2021/09/29 12:12:37;;;;;;;4.10;1.70;;;;;;;11.26;100.00;101410.91;2620999;36;20057;-78
2021/09/29 12:15:11;;;;;;;3.33;1.70;;;;;;;11.27;100.00;101414.50;2620439;36;20052;-76
2021/09/29 12:17:49;;;;;;;4.15;1.90;;;;;;;11.36;100.00;101428.03;2619673;36;20058;-78
2021/09/29 12:20:21;;;;;;;2.78;1.75;;;;;;;11.27;100.00;101422.56;2617005;36;20030;-77
2021/09/29 12:22:55;;;;;;;3.67;2.00;;;;;;;11.19;100.00;101420.53;2617325;36;20034;-76
2021/09/29 12:25:30;;;;;;;3.03;2.20;;;;;;;11.17;100.00;101419.78;2617539;36;20034;-77
2021/09/29 12:28:18;;;;;;;3.75;1.80;;;;;;;11.46;100.00;101428.13;2617067;36;20118;-78
2021/09/29 12:30:49;;;;;;;3.15;1.98;;;;;;;11.55;100.00;101426.50;2617734;36;20026;-78
2021/09/29 12:33:22;;;;;;;2.53;1.80;;;;;;;11.78;100.00;101429.09;2617400;36;20404;-77
2021/09/29 12:35:52;;;;;;;3.08;1.98;;;;;;;11.98;100.00;101420.19;2617205;36;20034;-78
2021/09/29 12:38:25;;;;;;;4.13;1.70;;;;;;;11.99;100.00;101421.06;2616392;36;20030;-79
2021/09/29 12:40:54;;;;;;;3.35;2.30;;;;;;;12.18;100.00;101421.19;2617985;36;20057;-77
2021/09/29 12:43:25;;;;;;;3.25;1.80;;;;;;;12.41;100.00;101418.31;2616871;36;20065;-77
2021/09/29 12:45:53;;;;;;;4.80;1.80;;;;;;;12.29;100.00;101414.00;2618308;31;20462;-80
2021/09/29 12:48:26;;;;;;;3.23;1.80;;;;;;;12.31;100.00;101420.13;2617429;31;20535;-80
2021/09/29 12:50:58;;;;;;;4.20;1.92;;;;;;;12.31;100.00;101412.00;2617732;36;20132;-76
2021/09/29 12:53:33;;;;;;;3.08;1.92;;;;;;;12.55;100.00;101417.97;2617677;36;20031;-77
2021/09/29 12:56:04;;;;;;;4.30;2.15;;;;;;;12.44;100.00;101420.78;2617733;36;20061;-77
2021/09/29 12:58:32;;;;;;;4.22;1.80;;;;;;;12.46;100.00;101415.25;2617556;36;20030;-78
2021/09/29 13:01:02;;;;;;;3.00;1.77;;;;;;;12.41;100.00;101415.63;2617363;36;20030;-77
2021/09/29 13:03:31;;;;;;;3.47;1.80;;;;;;;12.58;100.00;101422.25;2618381;31;20057;-76
2021/09/29 13:06:00;;;;;;;3.30;1.73;;;;;;;12.40;100.00;101435.53;2618134;36;20064;-83
2021/09/29 13:08:31;;;;;;;4.85;1.67;;;;;;;12.33;100.00;101424.41;2617088;36;20037;-83
2021/09/29 13:11:00;;;;;;;5.80;1.63;;;;;;;12.37;100.00;101425.84;2617674;36;20031;-78
2021/09/29 13:13:30;;;;;;;;;;;;;;;12.72;100.00;101423.72;2619426;36;20038;-79
2021/09/29 13:16:00;;;;;;;5.55;2.08;;;;;;;12.53;100.00;101429.88;2617045;31;19953;-78
2021/09/29 13:18:37;;;;;;;4.28;1.67;;;;;;;12.49;100.00;101432.00;2617966;36;20030;-75
2021/09/29 13:21:24;;;;;;;;;;;;;;;;;;;;;
2021/09/29 13:24:28;;;;;;;7.00;2.30;;;;;;;12.31;100.00;101455.19;2616897;36;20065;-77
2021/09/29 13:38:51;;;;;;;4.90;1.30;;;;;;;11.32;100.00;101501.19;2651077;36;20439;-80
2021/09/29 13:45:24;;;;;;;;;;;;;;;;;;;;;
2021/09/29 13:48:19;;;;;;;3.22;1.40;;;;;;;10.80;100.00;101536.72;2635385;36;20057;-76
2021/09/29 13:54:27;;;;;;;4.43;1.80;;;;;;;10.74;100.00;101530.97;2615774;36;20034;-77
2021/09/29 13:57:26;;;;;;;2.83;1.45;;;;;;;10.77;100.00;101531.56;2632975;36;20086;-77
2021/09/29 14:00:48;;;;;;;4.30;1.85;;;;;;;10.98;100.00;101547.00;2617664;36;20033;-79
2021/09/29 14:31:03;;;;;;;7.18;2.22;;;;;;;12.52;100.00;101530.81;2635545;36;20050;-80
2021/09/29 14:36:26;;;;;;;8.80;2.30;;;;;;;12.25;100.00;101540.28;2615581;36;20042;-82
2021/09/29 14:39:25;;;;;;;6.75;1.98;;;;;;;12.17;100.00;101542.75;2616306;36;20031;-79
2021/09/29 14:50:11;;;;;;;6.72;1.35;;;;;;;12.26;100.00;101559.03;2615601;36;20034;-80
2021/09/29 14:52:39;;;;;;;3.72;1.17;;;;;;;12.23;100.00;101570.09;2616027;36;20057;-78
2021/09/29 14:55:08;;;;;;;4.15;1.17;;;;;;;11.96;100.00;101565.16;2632499;36;20034;-78
2021/09/29 14:57:36;;;;;;;2.88;1.33;;;;;;;11.83;100.00;101581.47;2615876;36;20038;-79
2021/09/29 15:06:20;;;;;;;6.35;1.50;;;;;;;11.46;100.00;101575.56;2614776;36;20038;-80
2021/09/29 15:09:12;;;;;;;4.60;1.73;;;;;;;11.43;100.00;101590.13;2615244;36;20046;-78
2021/09/29 15:11:40;;;;;;;4.60;1.55;;;;;;;11.27;100.00;101584.25;2616981;36;20078;-78
2021/09/29 15:14:14;;;;;;;2.38;1.08;;;;;;;11.15;100.00;101592.34;2615362;36;20057;-80
2021/09/29 15:47:36;;;;;;;6.22;1.33;;;;;;;11.36;100.00;101683.22;2615539;36;20034;-78
2021/09/29 15:50:18;;;;;;;7.28;1.65;;;;;;;11.22;100.00;101685.19;2618186;36;20138;-78
2021/09/29 16:02:09;;;;;;;4.57;1.23;;;;;;;10.97;100.00;101685.38;2615818;39;20066;-75
2021/09/29 16:16:09;;;;;;;6.78;2.10;;;;;;;10.95;100.00;101706.19;2617488;36;20036;-78
2021/09/29 16:32:57;;;;;;;26.73;15.65;;;;;;;10.75;100.00;101723.84;2617073;36;20059;-80
2021/09/29 16:35:57;;;;;;;6.90;2.45;;;;;;;10.70;100.00;101745.72;2618077;36;20030;-78
2021/09/29 16:38:35;;;;;;;24.50;11.55;;;;;;;10.84;100.00;101737.47;2657532;36;20037;-79
2021/09/29 16:43:55;;;;;;;23.77;13.27;;;;;;;10.69;100.00;101738.66;2617480;36;20781;-84
2021/09/29 16:46:48;;;;;;;16.90;6.82;;;;;;;10.65;100.00;101747.94;2633700;36;20041;-78
2021/09/29 16:52:29;;;;;;;36.05;23.85;;;;;;;10.33;100.00;101749.34;2617949;36;20022;-79
2021/09/29 16:55:05;;;;;;;12.80;8.55;;;;;;;10.29;100.00;101755.88;2617428;36;20118;-79
2021/09/29 16:57:42;;;;;;;11.60;3.80;;;;;;;10.26;100.00;101766.88;2615325;36;20030;-77
2021/09/29 17:06:09;;;;;;;6.15;3.90;;;;;;;10.22;100.00;101778.81;2615967;36;20031;-78
2021/09/29 17:08:38;;;;;;;4.97;2.25;;;;;;;10.23;100.00;101782.38;2632528;36;20030;-78